^^

..:: Storico WU ::..




Lo storico viene creato da WUnderground con i dati che la stazione Meteomincio invia al loro server. L' aggiornamento viene fatto ogni 5 minuti circa, tuttavia possono esserci intervalli pi¨ ampi a causa di errori, interruzioni di servizio o problemi nell' invio tramite FTP.


Storico stazione MeteoMincio
Giorno Sommario per Agosto 12, 2022 Unità:  Inglese    Metrico   Entrambi
Giorno Settimana Mese Anno
  Max: Min: Media:
Temperatura: 83.7 °F 64.2 °F 72.9 °F
Dew Point: 65.7 °F 57.4 °F 62.2 °F
Umidità: 91.7% 45.1% 71%
Velocità vento: 19.9mph 0mph 5.5mph
Raffica: 30mph - -
Direzione- - East
Pressione: 30 in 29.9 in -
Precipitazioni: 0.45 in    
 
 
Tabulato Dati per Agosto 12, 2022
Ora Temperatura Dew Point Pressione Direzione Velocità vento Raffica Umidità Intensità pioggia (oraria) Info solare Situazione
00:04 74.5 °F 60.6 °F 30 in NNE 5.6 mph 12 mph 62% 0 in 0 W/m2
00:09 74.1 °F 61.2 °F 30 in NNE 3.5 mph 12 mph 64.3% 0 in 0 W/m2
00:14 74.1 °F 61.9 °F 30 in North 4.2 mph 12 mph 65.6% 0 in 0 W/m2
00:19 73.6 °F 61.7 °F 30 in North 8 mph 12.7 mph 66.1% 0 in 0 W/m2
00:24 73 °F 61.3 °F 30 in North 8.1 mph 15 mph 66.9% 0 in 0 W/m2
00:29 72.9 °F 59.9 °F 30 in NE 8.4 mph 15 mph 63.8% 0 in 0 W/m2
00:34 72.5 °F 59.5 °F 30 in NE 8.8 mph 15 mph 63.7% 0 in 0 W/m2
00:39 72 °F 59.9 °F 30 in NE 7.2 mph 15 mph 66% 0 in 0 W/m2
00:44 70.9 °F 60.6 °F 30 in NNE 7.2 mph 12.7 mph 69.8% 0 in 0 W/m2
00:49 70 °F 61 °F 30 in NNE 6 mph 13 mph 73.4% 0.01 in 0 W/m2
00:54 69.1 °F 61.5 °F 30 in NE 5.7 mph 9.2 mph 76.5% 0.01 in 0 W/m2
00:59 68.4 °F 61.5 °F 30 in NE 5.9 mph 9.2 mph 78.3% 0.02 in 0 W/m2
01:04 67.8 °F 61.7 °F 30 in NE 2.7 mph 9 mph 80.7% 0.02 in 0 W/m2
01:09 68 °F 62.6 °F 30 in NE 1.3 mph 8 mph 83.2% 0.02 in 0 W/m2
01:14 68 °F 62.6 °F 30 in NE 2.7 mph 4 mph 83.1% 0.02 in 0 W/m2
01:19 68.2 °F 63 °F 30 in ENE 2.4 mph 4 mph 83.8% 0.02 in 0 W/m2
01:24 68.2 °F 63 °F 30 in ENE 1.3 mph 3.5 mph 83.6% 0.03 in 0 W/m2
01:29 68 °F 63.3 °F 30 in SE 2.8 mph 5 mph 85% 0.03 in 0 W/m2
01:34 67.5 °F 63 °F 30 in SE 2.8 mph 5 mph 85.5% 0.03 in 0 W/m2
01:39 67.1 °F 62.6 °F 30 in SSE 2.9 mph 7 mph 85.7% 0.03 in 0 W/m2
01:44 67.3 °F 61.9 °F 30 in SSE 3 mph 7 mph 82.5% 0.04 in 0 W/m2
01:49 68 °F 61.3 °F 30 in SSE 3 mph 7 mph 79.5% 0.04 in 0 W/m2
01:54 68.4 °F 61.3 °F 30 in SSE 2.7 mph 7 mph 78% 0.03 in 0 W/m2
01:59 68.7 °F 61.2 °F 30 in SE 3.1 mph 6 mph 76.8% 0.03 in 0 W/m2
02:04 69.1 °F 60.8 °F 30 in SSE 2.8 mph 7 mph 75.4% 0.02 in 0 W/m2
02:09 69.1 °F 61.3 °F 30 in South 1.9 mph 7 mph 76.5% 0.02 in 0 W/m2
02:14 68.7 °F 61.7 °F 30 in SSE 2 mph 3.5 mph 78.6% 0.02 in 0 W/m2
02:19 68.7 °F 61.3 °F 30 in SSE 2.2 mph 5 mph 77.5% 0.02 in 0 W/m2
02:24 68.9 °F 61.3 °F 30 in SSE 1.9 mph 4.6 mph 77.2% 0.02 in 0 W/m2
02:29 68.9 °F 61.3 °F 30 in ESE 1.8 mph 4 mph 76.9% 0.02 in 0 W/m2
02:34 68.5 °F 61.7 °F 30 in East 2.5 mph 5 mph 78.5% 0.01 in 0 W/m2
02:39 68.4 °F 61.7 °F 30 in East 2.4 mph 5 mph 79.3% 0.01 in 0 W/m2
02:44 68.2 °F 61.5 °F 30 in ENE 2.9 mph 5 mph 79.3% 0.01 in 0 W/m2
02:49 68.2 °F 61.7 °F 30 in NE 1.5 mph 5 mph 79.7% 0 in 0 W/m2
02:54 68.5 °F 62.1 °F 30 in NNE 0.6 mph 3 mph 80.2% 0 in 0 W/m2
02:59 68.5 °F 62.4 °F 30 in Calm   2 mph 80.9% 0 in 0 W/m2
03:04 68.4 °F 62.6 °F 30 in Calm     82% 0 in 0 W/m2
03:09 68 °F 62.4 °F 30 in Calm     82.5% 0 in 0 W/m2
03:14 68 °F 62.4 °F 30 in North 1.4 mph 4 mph 82.8% 0 in 0 W/m2
03:19 68 °F 62.4 °F 30 in NNW 1.8 mph 4 mph 82.5% 0 in 0 W/m2
03:24 68.2 °F 62.2 °F 30 in NW 1.4 mph 3.5 mph 81.2% 0 in 0 W/m2
03:29 68.4 °F 62.4 °F 30 in NNW 1.6 mph 3.5 mph 81.6% 0 in 0 W/m2
03:34 68 °F 62.4 °F 30 in North 2.9 mph 4 mph 82.5% 0 in 0 W/m2
03:39 68 °F 62.4 °F 30 in North 2.7 mph 5 mph 82.6% 0 in 0 W/m2
03:44 67.8 °F 62.2 °F 30 in North 3 mph 6 mph 82% 0 in 0 W/m2
03:49 67.8 °F 62.1 °F 30 in North 3.5 mph 6 mph 82% 0 in 0 W/m2
03:54 67.8 °F 62.2 °F 30 in North 1.6 mph 5 mph 82.4% 0 in 0 W/m2
03:59 67.6 °F 62.1 °F 30 in North 0.9 mph 3.5 mph 82.5% 0 in 0 W/m2
04:04 67.5 °F 62.1 °F 30 in NNE 0.2 mph 3 mph 83% 0 in 0 W/m2
04:09 67.3 °F 61.9 °F 30 in NNE 1.4 mph 2.3 mph 83% 0 in 0 W/m2
04:14 67.1 °F 62.1 °F 30 in NE 1.4 mph 3.5 mph 84% 0 in 0 W/m2
04:19 66.9 °F 61.9 °F 30 in NE 2.1 mph 4 mph 84% 0 in 0 W/m2
04:24 66.9 °F 61.9 °F 29.9 in NNE 3 mph 5 mph 84% 0 in 0 W/m2
04:29 66.9 °F 61.9 °F 29.9 in NE 0.6 mph 5 mph 84% 0 in 0 W/m2
04:34 66.6 °F 61.7 °F 29.9 in NE 1.1 mph 2.3 mph 84.2% 0 in 0 W/m2
04:39 66.4 °F 61.7 °F 29.9 in NE 2.2 mph 4 mph 85% 0 in 0 W/m2
04:44 66.4 °F 61.9 °F 29.9 in NE 2.2 mph 4 mph 85.4% 0 in 0 W/m2
04:49 66 °F 61.7 °F 29.9 in NE 1.1 mph 3 mph 85.8% 0 in 0 W/m2
04:54 66.4 °F 62.1 °F 29.9 in NNE 0.4 mph 2.3 mph 86% 0 in 0 W/m2
04:59 66.6 °F 62.2 °F 29.9 in NNE 0.9 mph 2.3 mph 86% 0 in 0 W/m2
05:04 66.7 °F 62.4 °F 29.9 in NNE 1.2 mph 2.3 mph 86% 0 in 0 W/m2
05:09 66.9 °F 62.2 °F 29.9 in NNE 1.2 mph 3 mph 85.2% 0 in 0 W/m2
05:14 66.9 °F 62.2 °F 29.9 in NE 0.9 mph 3.5 mph 85% 0 in 0 W/m2
05:19 66.7 °F 62.2 °F 29.9 in NE 0.4 mph 3 mph 85.4% 0 in 0 W/m2
05:24 66.7 °F 62.4 °F 29.9 in Calm   2 mph 85.8% 0 in 0 W/m2
05:29 66.7 °F 62.2 °F 29.9 in Calm     85.2% 0 in 0 W/m2
05:34 66.6 °F 62.2 °F 29.9 in Calm     85.8% 0 in 0 W/m2
05:39 66.7 °F 62.4 °F 29.9 in Calm     86% 0 in 0 W/m2
05:44 66.6 °F 62.4 °F 29.9 in Calm     86.6% 0 in 0 W/m2
05:49 66.4 °F 62.4 °F 29.9 in NE 0.1 mph 3 mph 87% 0 in 0 W/m2
05:54 66.2 °F 62.2 °F 29.9 in NE 1.1 mph 3.5 mph 87% 0 in 0 W/m2
05:59 66 °F 62.1 °F 29.9 in NE 0.6 mph 3 mph 87% 0 in 0 W/m2
06:04 65.7 °F 61.9 °F 29.9 in ENE 2.1 mph 3.5 mph 87.9% 0 in 0 W/m2
06:09 65.5 °F 62.1 °F 29.9 in ENE 2.4 mph 4 mph 88.4% 0 in 0 W/m2
06:14 65.7 °F 62.4 °F 29.9 in ENE 3.2 mph 5 mph 89% 0 in 0 W/m2
06:19 66 °F 62.8 °F 29.9 in NE 3 mph 5 mph 89% 0 in 0 W/m2
06:24 66.6 °F 63 °F 29.9 in NE 2.9 mph 5 mph 88.6% 0 in 0 W/m2
06:29 66.7 °F 63 °F 29.9 in NE 3.5 mph 5 mph 88% 0 in 0 W/m2
06:34 66.9 °F 63.1 °F 29.9 in NE 3 mph 5 mph 88% 0 in 5 W/m2
06:39 67.1 °F 63.3 °F 29.9 in ENE 1.1 mph 4 mph 88% 0 in 12 W/m2
06:44 66.9 °F 63.1 °F 29.9 in ENE 1.4 mph 3 mph 88% 0 in 16 W/m2
06:49 66.7 °F 63.3 °F 29.9 in ENE 1.4 mph 2.3 mph 88.3% 0 in 23 W/m2
06:54 66.9 °F 63.3 °F 29.9 in East 1.8 mph 3.5 mph 88.6% 0 in 30 W/m2
06:59 66.6 °F 63 °F 29.9 in East 1.7 mph 3.5 mph 88.4% 0 in 37 W/m2
07:04 66.6 °F 63.3 °F 29.9 in NE 2.3 mph 3.5 mph 89% 0 in 47 W/m2
07:09 66.9 °F 63.5 °F 29.9 in ENE 3 mph 4 mph 89% 0 in 53 W/m2
07:14 67.3 °F 63.7 °F 29.9 in ENE 3.1 mph 5 mph 88.3% 0 in 67 W/m2
07:19 67.5 °F 63.7 °F 29.9 in ENE 3.4 mph 5 mph 88% 0 in 81 W/m2
07:24 67.5 °F 63.7 °F 29.9 in ENE 3.3 mph 5 mph 87.8% 0 in 91 W/m2
07:29 67.5 °F 63.7 °F 29.9 in ENE 3 mph 5 mph 87.8% 0 in 98 W/m2
07:34 67.8 °F 63.9 °F 29.9 in ENE 1.8 mph 5 mph 87.3% 0 in 114 W/m2
07:39 68.2 °F 64.4 °F 29.9 in ENE 1.5 mph 3.5 mph 87.8% 0 in 114 W/m2
07:44 68.2 °F 64.4 °F 29.9 in ENE 2.1 mph 4 mph 87.6% 0 in 90 W/m2
07:49 68.5 °F 64.6 °F 29.9 in ENE 1.9 mph 5 mph 86.8% 0 in 83 W/m2
07:54 68.9 °F 64.4 °F 29.9 in ENE 2.3 mph 5 mph 85.7% 0 in 72 W/m2
07:59 69.3 °F 64.6 °F 29.9 in ENE 0.9 mph 3.5 mph 85.4% 0 in 77 W/m2
08:04 69.6 °F 64.4 °F 29.9 in East 0.6 mph 3 mph 83.7% 0 in 81 W/m2
08:09 70 °F 64.6 °F 29.9 in ENE 0.3 mph 2.3 mph 83.2% 0 in 81 W/m2
08:14 70.3 °F 64.8 °F 29.9 in ENE 1.7 mph 3.5 mph 82.7% 0 in 98 W/m2
08:19 70.7 °F 64.6 °F 29.9 in ENE 1.8 mph 3.5 mph 80.8% 0 in 139 W/m2
08:24 71.2 °F 64.4 °F 29.9 in ESE 1.5 mph 3.5 mph 79.4% 0 in 165 W/m2
08:29 71.8 °F 64.8 °F 29.9 in ESE 1.8 mph 3.5 mph 78.6% 0 in 234 W/m2
08:34 72.1 °F 64.8 °F 29.9 in ESE 2.4 mph 4 mph 77.6% 0 in 193 W/m2
08:39 72.3 °F 64.9 °F 29.9 in ESE 2.4 mph 5 mph 77.8% 0 in 213 W/m2
08:44 72.5 °F 65.1 °F 29.9 in ESE 2.4 mph 5 mph 77.3% 0 in 341 W/m2
08:49 72.9 °F 64.4 °F 29.9 in ESE 3.9 mph 7 mph 74.7% 0 in 237 W/m2
08:54 73 °F 64 °F 29.9 in East 4.5 mph 8.1 mph 73.2% 0 in 287 W/m2
08:59 73.2 °F 63.5 °F 29.9 in East 5.5 mph 9.2 mph 71.7% 0 in 207 W/m2
09:04 73.2 °F 63.5 °F 29.9 in East 4 mph 9 mph 71.6% 0 in 186 W/m2
09:09 73.2 °F 63.5 °F 30 in ENE 5.2 mph 9.2 mph 71.7% 0 in 213 W/m2
09:14 73.6 °F 63.5 °F 30 in ENE 5.7 mph 9.2 mph 71% 0 in 258 W/m2
09:19 73.6 °F 63.5 °F 30 in ENE 4.8 mph 9.2 mph 70.8% 0 in 202 W/m2
09:24 73.6 °F 63.5 °F 30 in ENE 5.7 mph 9.2 mph 70.7% 0 in 195 W/m2
09:29 73.4 °F 63.5 °F 30 in East 6 mph 13 mph 71.2% 0 in 223 W/m2
09:34 73.4 °F 63.3 °F 30 in East 6.6 mph 13 mph 70.8% 0 in 223 W/m2
09:39 73.6 °F 63.1 °F 30 in East 7.4 mph 13 mph 69.9% 0 in 227 W/m2
09:44 73.4 °F 63 °F 30 in East 6.1 mph 13 mph 70.2% 0 in 253 W/m2
09:49 73.6 °F 63.5 °F 30 in East 5.5 mph 10 mph 70.7% 0 in 290 W/m2
09:54 74.1 °F 63.7 °F 30 in East 6.3 mph 10.4 mph 69.5% 0 in 290 W/m2
09:59 74.3 °F 63.3 °F 30 in East 6.3 mph 11.5 mph 68.6% 0 in 278 W/m2
10:04 74.5 °F 63 °F 30 in East 6.3 mph 12 mph 67.8% 0 in 374 W/m2
10:09 74.5 °F 63 °F 30 in East 6.6 mph 14 mph 67.4% 0 in 374 W/m2
10:14 74.5 °F 62.8 °F 30 in East 7.4 mph 14 mph 66.9% 0 in 225 W/m2
10:19 74.5 °F 62.4 °F 30 in ESE 7.9 mph 13 mph 65.8% 0 in 234 W/m2
10:24 74.5 °F 62.4 °F 30 in East 9.1 mph 15 mph 65.7% 0 in 246 W/m2
10:29 74.7 °F 62.2 °F 30 in East 8.1 mph 15 mph 65.1% 0 in 276 W/m2
10:34 75 °F 62.2 °F 30 in East 8.2 mph 14 mph 64.7% 0 in 345 W/m2
10:39 75.4 °F 62.4 °F 30 in East 8.1 mph 14 mph 64.2% 0 in 323 W/m2
10:44 75.4 °F 62.2 °F 30 in East 8.3 mph 15 mph 63.5% 0 in 318 W/m2
10:49 75.7 °F 61.9 °F 30 in East 10.3 mph 15 mph 62.2% 0 in 445 W/m2
10:54 75.9 °F 61.7 °F 30 in East 9.6 mph 15 mph 61.2% 0 in 327 W/m2
10:59 76.3 °F 62.2 °F 30 in East 9.3 mph 15 mph 61.5% 0 in 345 W/m2
11:04 76.3 °F 62.1 °F 30 in East 9.8 mph 15 mph 61.1% 0 in 367 W/m2
11:09 76.8 °F 62.6 °F 30 in East 10.4 mph 17.3 mph 61.5% 0 in 775 W/m2
11:14 77.9 °F 63.3 °F 30 in East 10.1 mph 17 mph 61.2% 0 in 777 W/m2
11:19 78.3 °F 63.3 °F 30 in East 9.6 mph 15 mph 60.4% 0 in 833 W/m2
11:24 78.1 °F 63.9 °F 30 in East 8.3 mph 15 mph 61.7% 0 in 733 W/m2
11:29 78.3 °F 63.9 °F 30 in East 8.9 mph 16.1 mph 61.5% 0 in 798 W/m2
11:34 78.3 °F 63.7 °F 30 in East 11.6 mph 17.3 mph 60.7% 0 in 759 W/m2
11:39 78.3 °F 63.3 °F 30 in East 8.8 mph 15 mph 60.3% 0 in 759 W/m2
11:44 77.9 °F 63.3 °F 30 in East 10.4 mph 16.1 mph 60.7% 0 in 367 W/m2
11:49 77.9 °F 63.3 °F 30 in East 8.4 mph 16 mph 60.8% 0 in 397 W/m2
11:54 78.1 °F 63.7 °F 30 in East 7 mph 15 mph 61.5% 0 in 396 W/m2
11:59 77.7 °F 63.5 °F 30 in ESE 8.6 mph 18.4 mph 61.6% 0 in 369 W/m2
12:04 77.4 °F 63.1 °F 30 in ESE 11.4 mph 18.4 mph 61.7% 0 in 315 W/m2
12:09 77.2 °F 63.9 °F 30 in ESE 10.1 mph 16.1 mph 63.3% 0 in 327 W/m2
12:14 77.4 °F 64.4 °F 30 in East 9.7 mph 16.1 mph 64.4% 0 in 348 W/m2
12:19 77.5 °F 64.4 °F 30 in ESE 8.7 mph 16 mph 63.9% 0 in 348 W/m2
12:24 78.1 °F 64.6 °F 30 in ESE 9.8 mph 17 mph 63.3% 0 in 807 W/m2
12:29 79 °F 64.2 °F 30 in ESE 9.8 mph 16.1 mph 60.8% 0 in 807 W/m2
12:34 79.7 °F 64.9 °F 30 in East 8.5 mph 17 mph 60.7% 0 in 526 W/m2
12:39 79.7 °F 64.2 °F 30 in ESE 11.7 mph 17.3 mph 59.1% 0 in 459 W/m2
12:44 80.1 °F 65.3 °F 29.9 in ESE 8.4 mph 15 mph 60.8% 0 in 682 W/m2
12:49 80.4 °F 65.1 °F 29.9 in ESE 8.3 mph 14 mph 59.8% 0 in 780 W/m2
12:54 80.1 °F 64.8 °F 29.9 in ESE 9.6 mph 14 mph 59.6% 0 in 853 W/m2
12:59 80.1 °F 64.8 °F 29.9 in ESE 9.4 mph 16 mph 59.6% 0 in 853 W/m2
13:04 79.7 °F 64.8 °F 29.9 in ESE 9.5 mph 16.1 mph 60.3% 0 in 494 W/m2
13:09 79.7 °F 64.9 °F 29.9 in East 6.3 mph 16 mph 60.5% 0 in 499 W/m2
13:14 79.7 °F 65.3 °F 29.9 in East 6.8 mph 12 mph 61.4% 0 in 501 W/m2
13:19 79.7 °F 64.9 °F 29.9 in East 8.1 mph 13 mph 60.6% 0 in 485 W/m2
13:24 79.5 °F 65.5 °F 29.9 in ESE 5.3 mph 13 mph 62.4% 0 in 427 W/m2
13:28 79.3 °F 64.9 °F 29.9 in ESE 9.5 mph 14 mph 61.3% 0 in 475 W/m2
13:34 79.3 °F 65.3 °F 29.9 in ESE 8.3 mph 16 mph 62% 0 in 475 W/m2
13:39 79.2 °F 64.9 °F 29.9 in ESE 10.4 mph 16.1 mph 61.5% 0 in 381 W/m2
13:44 79.2 °F 64.8 °F 29.9 in ESE 8.3 mph 16 mph 61.4% 0 in 378 W/m2
13:49 79.3 °F 65.1 °F 29.9 in ESE 6.2 mph 14 mph 62.2% 0 in 415 W/m2
13:54 79.5 °F 64.9 °F 29.9 in ESE 8.2 mph 14 mph 61% 0 in 529 W/m2
13:59 79.7 °F 64.9 °F 29.9 in ESE 7.8 mph 14 mph 60.8% 0 in 450 W/m2
14:04 79.9 °F 65.3 °F 29.9 in East 7.4 mph 13 mph 61% 0 in 577 W/m2
14:09 80.4 °F 65.7 °F 29.9 in ESE 7 mph 16 mph 60.8% 0 in 879 W/m2
14:14 81.1 °F 64.9 °F 29.9 in ESE 9.3 mph 16.1 mph 57.9% 0 in 824 W/m2
14:19 81.7 °F 64 °F 29.9 in ESE 7.3 mph 16 mph 55.1% 0 in 812 W/m2
14:24 81.9 °F 63 °F 29.9 in SE 6.5 mph 10.4 mph 52.8% 0 in 803 W/m2
14:29 82 °F 63.1 °F 29.9 in ESE 7.6 mph 14 mph 52.9% 0 in 796 W/m2
14:34 82 °F 63.3 °F 29.9 in East 7.8 mph 14 mph 53.1% 0 in 798 W/m2
14:39 82 °F 62.8 °F 29.9 in East 8.5 mph 14 mph 52.1% 0 in 802 W/m2
14:44 82 °F 62.6 °F 29.9 in ESE 9.1 mph 15 mph 51.9% 0 in 788 W/m2
14:49 82 °F 63.5 °F 29.9 in ESE 9.9 mph 16 mph 53.4% 0 in 786 W/m2
14:54 82.2 °F 63.1 °F 29.9 in ESE 9.8 mph 15 mph 52.6% 0 in 765 W/m2
14:59 82.4 °F 63.1 °F 29.9 in ESE 8.1 mph 13.8 mph 52.2% 0 in 765 W/m2
15:04 82.8 °F 63.1 °F 29.9 in East 6.5 mph 13 mph 51.5% 0 in 765 W/m2
15:09 82.9 °F 63 °F 29.9 in ESE 6.6 mph 10.4 mph 50.9% 0 in 754 W/m2
15:14 82.9 °F 62.8 °F 29.9 in SE 6 mph 13 mph 50.7% 0 in 754 W/m2
15:19 83.1 °F 62.8 °F 29.9 in East 6.1 mph 14 mph 50.3% 0 in 738 W/m2
15:24 83.1 °F 62.1 °F 29.9 in East 8.7 mph 14 mph 48.9% 0 in 731 W/m2
15:29 83.1 °F 61.7 °F 29.9 in ESE 8.1 mph 16.1 mph 48.6% 0 in 724 W/m2
15:34 83.1 °F 62.2 °F 29.9 in East 8.9 mph 16.1 mph 49.4% 0 in 719 W/m2
15:39 83.3 °F 61.5 °F 29.9 in ESE 8.4 mph 16 mph 47.8% 0 in 712 W/m2
15:44 83.5 °F 62.1 °F 29.9 in East 8 mph 14 mph 48.5% 0 in 703 W/m2
15:48 83.1 °F 61.5 °F 29.9 in East 7.1 mph 14 mph 48.1% 0 in 694 W/m2
15:54 83.3 °F 61.9 °F 29.9 in East 7.9 mph 13 mph 48.7% 0 in 679 W/m2
15:59 83.5 °F 62.1 °F 29.9 in ENE 8.8 mph 15 mph 48.8% 0 in 673 W/m2
16:04 83.7 °F 62.4 °F 29.9 in East 7.8 mph 15 mph 48.7% 0 in 663 W/m2
16:09 83.7 °F 61.5 °F 29.9 in ESE 6.9 mph 15 mph 47.4% 0 in 661 W/m2
16:14 83.3 °F 62.1 °F 29.9 in East 7 mph 12 mph 48.7% 0 in 642 W/m2
16:19 83.3 °F 61 °F 29.9 in ESE 7.5 mph 13 mph 47.2% 0 in 636 W/m2
16:24 83.1 °F 60.6 °F 29.9 in East 8.6 mph 13 mph 46.5% 0 in 624 W/m2
16:29 83.3 °F 61 °F 29.9 in ENE 8.3 mph 13 mph 47% 0 in 619 W/m2
16:34 83.5 °F 61 °F 29.9 in East 7.2 mph 12 mph 46.7% 0 in 606 W/m2
16:39 83.5 °F 61.2 °F 29.9 in ESE 6.2 mph 10.4 mph 46.9% 0 in 591 W/m2
16:44 83.5 °F 60.6 °F 29.9 in ESE 6.6 mph 10.4 mph 46.2% 0 in 580 W/m2
16:49 83.3 °F 59.9 °F 29.9 in ESE 7.3 mph 14 mph 45.3% 0 in 566 W/m2
16:54 82.9 °F 59.7 °F 29.9 in East 7.2 mph 14 mph 45.5% 0 in 554 W/m2
16:59 83.3 °F 60.3 °F 29.9 in East 7.1 mph 14 mph 45.9% 0 in 545 W/m2
17:04 83.3 °F 60.8 °F 29.9 in East 7.7 mph 12 mph 46.7% 0 in 527 W/m2
17:09 83.5 °F 60.4 °F 29.9 in ESE 6.5 mph 12 mph 45.8% 0 in 517 W/m2
17:14 83.3 °F 59.9 °F 29.9 in East 6.5 mph 10.4 mph 45.4% 0 in 510 W/m2
17:19 83.1 °F 59.5 °F 29.9 in ESE 7 mph 11.5 mph 45.1% 0 in 494 W/m2
17:24 83.1 °F 59.7 °F 29.9 in ESE 4.8 mph 12 mph 45.1% 0 in 487 W/m2
17:29 83.3 °F 60.4 °F 29.9 in East 6.8 mph 12 mph 46% 0 in 478 W/m2
17:34 83.5 °F 60.4 °F 29.9 in ESE 6 mph 12 mph 45.9% 0 in 469 W/m2
17:39 83.1 °F 61 °F 29.9 in ESE 6.3 mph 9.2 mph 47.3% 0 in 371 W/m2
17:44 82.8 °F 60.8 °F 29.9 in ESE 5.5 mph 9.2 mph 47.5% 0 in 199 W/m2
17:49 82.2 °F 59.7 °F 29.9 in ESE 4.3 mph 9 mph 46.6% 0 in 202 W/m2
17:54 81.9 °F 60.6 °F 29.9 in East 3.3 mph 6 mph 48.5% 0 in 197 W/m2
17:59 81.7 °F 61.2 °F 29.9 in East 4.8 mph 8.1 mph 50.1% 0 in 167 W/m2
18:04 81.3 °F 61.3 °F 29.9 in East 3.9 mph 8.1 mph 51% 0 in 132 W/m2
18:09 81.1 °F 61 °F 29.9 in East 5 mph 8.1 mph 50.3% 0 in 114 W/m2
18:14 81 °F 61 °F 29.9 in East 5.8 mph 10 mph 50.7% 0 in 107 W/m2
18:19 80.8 °F 60.6 °F 29.9 in ENE 6.8 mph 11.5 mph 50.3% 0 in 102 W/m2
18:24 81 °F 60.6 °F 29.9 in ENE 5.6 mph 12.7 mph 50.3% 0 in 97 W/m2
18:29 80.8 °F 60.4 °F 29.9 in ENE 7.3 mph 15 mph 50.1% 0 in 90 W/m2
18:34 80.8 °F 59.4 °F 29.9 in ENE 8.5 mph 17.3 mph 48.1% 0 in 90 W/m2
18:39 80.8 °F 58.6 °F 29.9 in East 9.6 mph 17 mph 47% 0 in 69 W/m2
18:44 80.6 °F 58.5 °F 29.9 in ENE 9.4 mph 14 mph 47% 0 in 44 W/m2
18:49 80.4 °F 58.6 °F 29.9 in ENE 7.6 mph 14 mph 47.5% 0 in 40 W/m2
18:54 80.2 °F 58.8 °F 29.9 in ENE 8.8 mph 18.4 mph 48.3% 0 in 23 W/m2
18:59 79.7 °F 59.2 °F 29.9 in NE 13.4 mph 25 mph 49.6% 0 in 32 W/m2
19:04 78.6 °F 60.1 °F 29.9 in NE 14 mph 25.3 mph 53.1% 0 in 40 W/m2
19:09 77.4 °F 60.4 °F 29.9 in NE 15.8 mph 30 mph 56% 0 in 39 W/m2
19:14 76.3 °F 60.6 °F 29.9 in ENE 16.7 mph 30 mph 58.8% 0 in 54 W/m2
19:19 75.2 °F 60.6 °F 29.9 in ENE 19.9 mph 30 mph 60.5% 0 in 69 W/m2
19:24 74.8 °F 60.4 °F 29.9 in ENE 18.6 mph 30 mph 61% 0 in 97 W/m2
19:29 74.3 °F 60.4 °F 29.9 in ENE 16.2 mph 28 mph 61.8% 0 in 107 W/m2
19:34 73.9 °F 59.9 °F 29.9 in ENE 16 mph 26 mph 61.8% 0 in 107 W/m2
19:39 73.6 °F 59 °F 29.9 in ENE 13.2 mph 26 mph 60.6% 0 in 74 W/m2
19:44 73 °F 57.9 °F 29.9 in ENE 15 mph 27 mph 59.1% 0 in 54 W/m2
19:49 72.3 °F 57.4 °F 29.9 in ENE 14.8 mph 27 mph 59.3% 0 in 40 W/m2
19:54 71.4 °F 58.3 °F 29.9 in ENE 12.5 mph 26 mph 63.4% 0 in 26 W/m2
19:59 70.5 °F 58.6 °F 29.9 in ENE 11.3 mph 23 mph 66.2% 0 in 12 W/m2
20:04 70.2 °F 58.6 °F 29.9 in ENE 10.6 mph 20 mph 67.1% 0 in 7 W/m2
20:09 69.8 °F 58.8 °F 29.9 in ENE 9.3 mph 18 mph 68% 0 in 7 W/m2
20:14 69.6 °F 58.6 °F 29.9 in ENE 10.3 mph 16.1 mph 67.8% 0 in 7 W/m2
20:19 69.8 °F 58.3 °F 29.9 in East 11.2 mph 20 mph 67.1% 0 in 0 W/m2
20:24 69.8 °F 58.3 °F 29.9 in East 10.6 mph 20 mph 67% 0 in 0 W/m2
20:29 70 °F 58.8 °F 29.9 in ENE 7.2 mph 20 mph 67.8% 0 in 0 W/m2
20:34 70 °F 59.7 °F 30 in ENE 6.3 mph 11.5 mph 70.1% 0.02 in 0 W/m2
20:39 68.7 °F 61.3 °F 30 in NNE 5 mph 12 mph 77.4% 0.09 in 0 W/m2
20:44 67.3 °F 61.9 °F 30 in NE 5.3 mph 9.2 mph 83% 0.17 in 0 W/m2
20:49 66.2 °F 61.7 °F 30 in ENE 6.3 mph 10 mph 85.3% 0.21 in 0 W/m2
20:54 65.5 °F 61.3 °F 30 in NE 7.1 mph 11.5 mph 86.8% 0.24 in 0 W/m2
20:59 65.3 °F 61.5 °F 30 in NE 8.2 mph 12 mph 87.7% 0.28 in 0 W/m2
21:04 65.1 °F 61.5 °F 30 in NE 6.3 mph 12 mph 88% 0.28 in 0 W/m2
21:09 65.1 °F 61.5 °F 30 in ENE 6.6 mph 12 mph 88.2% 0.28 in 0 W/m2
21:14 64.9 °F 61.3 °F 30 in NE 4.8 mph 12 mph 88% 0.29 in 0 W/m2
21:19 64.9 °F 61.5 °F 30 in NE 5.2 mph 9 mph 88.7% 0.3 in 0 W/m2
21:24 64.9 °F 61.7 °F 30 in ENE 6.2 mph 9.2 mph 89% 0.32 in 0 W/m2
21:29 64.8 °F 61.3 °F 30 in ENE 4.2 mph 9 mph 89% 0.35 in 0 W/m2
21:34 64.6 °F 61.5 °F 30 in ENE 2.9 mph 5 mph 89.7% 0.35 in 0 W/m2
21:39 64.6 °F 61.5 °F 30 in ENE 5.1 mph 11.5 mph 90% 0.32 in 0 W/m2
21:44 64.4 °F 61.3 °F 30 in East 6.1 mph 9.2 mph 90% 0.27 in 0 W/m2
21:49 64.2 °F 61.2 °F 30 in East 4.5 mph 9.2 mph 90% 0.22 in 0 W/m2
21:54 64.4 °F 61.3 °F 30 in ESE 3.2 mph 7 mph 90% 0.2 in 0 W/m2
21:59 64.6 °F 61.5 °F 30 in ESE 3.3 mph 7 mph 90% 0.17 in 0 W/m2
22:04 64.8 °F 61.7 °F 30 in ESE 3.6 mph 7 mph 90% 0.13 in 0 W/m2
22:09 64.8 °F 61.9 °F 30 in ESE 3.1 mph 6 mph 90% 0.13 in 0 W/m2
22:14 65.1 °F 62.1 °F 30 in East 2.9 mph 6 mph 90% 0.13 in 0 W/m2
22:19 65.1 °F 62.1 °F 30 in East 2.4 mph 6 mph 90% 0.12 in 0 W/m2
22:24 65.1 °F 62.1 °F 30 in ENE 3 mph 6 mph 90% 0.11 in 0 W/m2
22:29 65.3 °F 62.4 °F 30 in NNE 2.9 mph 6 mph 90.2% 0.08 in 0 W/m2
22:34 65.5 °F 62.8 °F 30 in North 2.2 mph 5 mph 91% 0.06 in 0 W/m2
22:39 65.5 °F 62.8 °F 30 in SSW 1.7 mph 3.5 mph 91% 0.06 in 0 W/m2
22:44 65.5 °F 62.8 °F 30 in SSE 1.5 mph 4 mph 91% 0.04 in 0 W/m2
22:49 65.3 °F 62.6 °F 30 in South 1.7 mph 4 mph 90.9% 0.01 in 0 W/m2
22:54 65.5 °F 62.8 °F 30 in SSW 0.1 mph 3 mph 91% 0 in 0 W/m2
22:59 65.5 °F 62.8 °F 30 in North 1.4 mph 3.5 mph 91% 0 in 0 W/m2
23:04 65.5 °F 63 °F 30 in North 0.7 mph 3 mph 91.2% 0 in 0 W/m2
23:09 65.3 °F 62.8 °F 30 in North 0.6 mph 2.3 mph 91.4% 0 in 0 W/m2
23:14 65.3 °F 62.6 °F 30 in North 1.4 mph 4 mph 91.2% 0 in 0 W/m2
23:19 65.3 °F 62.8 °F 30 in NNE 3.1 mph 5 mph 91.7% 0 in 0 W/m2
23:24 65.1 °F 62.4 °F 30 in NNE 3.2 mph 5 mph 91.2% 0 in 0 W/m2
23:29 64.8 °F 62.1 °F 30 in NE 3.1 mph 5 mph 91% 0 in 0 W/m2
23:34 64.8 °F 62.1 °F 30 in NE 2.4 mph 5 mph 91.2% 0 in 0 W/m2
23:39 64.8 °F 61.9 °F 30 in ENE 0.6 mph 5 mph 90.7% 0 in 0 W/m2
23:44 64.6 °F 61.7 °F 30 in NE 2.1 mph 5 mph 90.2% 0 in 0 W/m2
23:49 64.6 °F 61.7 °F 30 in NE 3.6 mph 5 mph 90.5% 0 in 0 W/m2
23:54 64.6 °F 61.9 °F 30 in North 1.7 mph 5 mph 91.2% 0 in 0 W/m2
23:59 64.6 °F 61.9 °F 30 in WNW 1.5 mph 3.5 mph 91% 0 in 0 W/m2
Stazione Meteorologica MeteoMincio Rivalta s/M (MN)
Con i complimenti di Weather Underground - 4 mb


METEO PILLOLE
Il luogo più nebbioso degli USA
Cape Disappointment - Washington
Per 2552 ore (106 giorni) all'anno in media è avvolto da nebbia fitta.

Do NOT follow this link or you will be banned from the site!